Time;durP1;ratioP1;P1;durP2;ratioP2;P2;SDS_P1;SDS_P2;PMS_P1;PMS_P2;Temp;Humidity;BMP_temperature;BMP_pressure;BME280_temperature;BME280_humidity;BME280_pressure;Samples;Min_cycle;Max_cycle;Signal;HPM_P1;HPM_P2
2022/04/21 00:00:35;;;;;;;;;6.33;6.33;;;;;15.80;30.25;100520.25;5009962;28;45369;-70
2022/04/21 00:03:02;;;;;;;;;7.00;7.00;;;;;15.83;30.42;100540.53;5009985;28;45467;-70
2022/04/21 00:05:28;;;;;;;;;5.67;5.67;;;;;15.87;30.36;100552.53;5017476;28;45565;-71
2022/04/21 00:07:53;;;;;;;;;6.67;6.67;;;;;15.70;30.49;100518.88;5010021;28;45750;-68
2022/04/21 00:10:20;;;;;;;;;6.33;6.33;;;;;15.62;30.17;100509.06;4998697;28;45228;-68
2022/04/21 00:12:45;;;;;;;;;5.33;5.33;;;;;15.90;30.41;100552.16;4998868;28;45496;-69
2022/04/21 00:15:11;;;;;;;;;7.33;7.33;;;;;15.81;30.27;100540.66;4997929;28;45326;-69
2022/04/21 00:17:37;;;;;;;;;5.67;5.67;;;;;15.83;30.81;100548.56;5005392;28;45739;-69
2022/04/21 00:20:03;;;;;;;;;10.00;8.00;;;;;15.72;31.14;100535.59;5008471;28;45195;-69
2022/04/21 00:25:12;;;;;;;;;7.67;7.33;;;;;15.71;30.60;100537.44;5018804;28;45393;-69
2022/04/21 00:27:43;;;;;;;;;7.00;7.00;;;;;15.68;31.00;100524.41;5010874;28;45793;-72
2022/04/21 00:30:09;;;;;;;;;7.00;7.00;;;;;15.59;31.09;100514.75;5003944;28;45516;-68
2022/04/21 00:32:36;;;;;;;;;8.67;5.67;;;;;15.63;31.05;100528.66;5016802;28;45337;-69
2022/04/21 00:35:03;;;;;;;;;6.00;4.33;;;;;15.59;31.19;100521.97;5018385;28;45628;-68
2022/04/21 00:37:29;;;;;;;;;8.33;8.00;;;;;15.49;31.04;100501.59;5004902;28;48233;-68
2022/04/21 00:39:54;;;;;;;;;8.33;6.00;;;;;14.83;31.35;100404.13;4998275;28;45312;-69
2022/04/21 00:42:20;;;;;;;;;7.33;6.33;;;;;14.97;30.95;100436.44;4981122;28;45402;-75
2022/04/21 00:44:46;;;;;;;;;5.33;5.00;;;;;15.47;31.41;100510.84;5006591;28;45740;-68
2022/04/21 00:47:13;;;;;;;;;7.00;7.00;;;;;15.48;31.23;100507.97;5012164;28;47772;-68
2022/04/21 00:49:39;;;;;;;;;8.67;6.67;;;;;15.45;31.11;100502.16;5014415;28;45539;-68
2022/04/21 00:52:07;;;;;;;;;8.00;8.00;;;;;15.25;31.39;100488.44;5014827;28;45259;-69
2022/04/21 00:54:33;;;;;;;;;8.67;8.00;;;;;15.41;31.58;100509.69;4981692;28;45437;-70
2022/04/21 00:57:03;;;;;;;;;8.00;8.00;;;;;15.41;31.67;100509.69;5004379;28;46284;-70
2022/04/21 00:59:30;;;;;;;;;11.67;7.00;;;;;15.28;31.32;100484.56;5009159;28;45621;-69
2022/04/21 01:04:40;;;;;;;;;7.33;7.33;;;;;15.40;31.17;100502.69;5018088;28;45332;-68
2022/04/21 01:07:08;;;;;;;;;7.67;6.00;;;;;15.36;31.38;100501.38;5017213;28;45677;-69
2022/04/21 01:09:40;;;;;;;;;8.33;7.33;;;;;15.39;31.38;100505.53;5018271;28;45279;-69
2022/04/21 01:12:11;;;;;;;;;8.33;7.67;;;;;15.38;31.89;100499.34;5014583;28;45335;-70
2022/04/21 01:14:38;;;;;;;;;8.33;8.33;;;;;15.20;32.07;100477.41;4998571;28;45515;-69
2022/04/21 01:17:07;;;;;;;;;9.00;9.00;;;;;15.32;32.27;100494.72;4999664;28;47663;-69
2022/04/21 01:19:34;;;;;;;;;9.33;9.33;;;;;15.10;32.68;100452.75;4982179;28;45541;-70
2022/04/21 01:21:59;;;;;;;;;10.00;8.67;;;;;15.28;32.72;100489.91;4997302;28;45420;-71
2022/04/21 01:24:26;;;;;;;;;8.00;7.33;;;;;15.29;32.88;100489.72;5003535;28;45507;-68
2022/04/21 01:26:54;;;;;;;;;9.67;8.67;;;;;15.19;33.32;100489.13;4997477;28;46463;-69
2022/04/21 01:29:19;;;;;;;;;9.00;9.00;;;;;15.21;33.08;100497.81;5013291;28;45202;-68
2022/04/21 01:31:45;;;;;;;;;7.33;7.33;;;;;15.14;33.06;100497.72;5017783;28;45421;-69
2022/04/21 01:34:10;;;;;;;;;9.67;8.67;;;;;15.02;33.04;100471.56;5017390;28;45462;-71
2022/04/21 01:41:08;;;;;;;;;9.00;9.00;;;;;15.11;32.74;100497.25;5017156;28;46126;-68
2022/04/21 01:42:05;;;;;;;;;9.00;9.00;;;;;15.02;32.82;100482.28;4997558;28;45306;-69
2022/04/21 01:44:30;;;;;;;;;7.67;7.67;;;;;15.04;33.00;100481.06;5004706;28;45487;-69
2022/04/21 01:46:56;;;;;;;;;7.33;7.33;;;;;15.01;32.33;100473.38;5006450;28;45421;-69
2022/04/21 01:49:21;;;;;;;;;10.33;10.33;;;;;14.79;32.36;100448.28;5016553;28;58044;-69
2022/04/21 01:51:46;;;;;;;;;10.33;9.00;;;;;14.40;32.36;100396.69;4999104;28;45532;-71
2022/04/21 01:54:12;;;;;;;;;11.00;9.50;;;;;14.68;32.25;100440.69;5017458;28;45416;-69
2022/04/21 01:56:37;;;;;;;;;7.67;7.67;;;;;14.77;32.88;100449.47;5010161;28;46488;-70
2022/04/21 01:59:03;;;;;;;;;8.33;8.33;;;;;13.98;32.80;100339.13;5003708;28;45479;-69
2022/04/21 02:01:28;;;;;;;;;9.33;9.33;;;;;14.70;32.06;100462.75;4980241;28;45655;-68
2022/04/21 02:03:54;;;;;;;;;12.00;10.00;;;;;14.32;32.71;100405.59;5012527;28;45302;-68
2022/04/21 02:06:20;;;;;;;;;10.33;8.33;;;;;14.80;32.71;100483.91;5017222;28;45820;-69
2022/04/21 02:08:47;;;;;;;;;8.67;7.00;;;;;14.84;32.72;100462.00;5017197;28;45333;-69
2022/04/21 02:11:12;;;;;;;;;8.33;8.33;;;;;14.73;32.45;100450.84;5017281;28;45227;-68
2022/04/21 02:13:38;;;;;;;;;9.33;8.33;;;;;14.88;32.63;100465.13;4998977;28;45488;-71
2022/04/21 02:16:03;;;;;;;;;11.33;7.33;;;;;14.88;32.46;100465.97;4999302;28;47948;-69
2022/04/21 02:18:29;;;;;;;;;9.67;8.33;;;;;14.73;32.33;100454.34;5001750;28;45475;-68
2022/04/21 02:20:55;;;;;;;;;9.33;9.00;;;;;14.68;32.48;100464.78;4999797;28;45449;-68
2022/04/21 02:23:20;;;;;;;;;10.67;8.33;;;;;14.63;32.26;100459.13;5003820;28;45451;-70
2022/04/21 02:25:45;;;;;;;;;8.33;8.00;;;;;14.07;32.69;100369.34;4979706;28;47836;-69
2022/04/21 02:28:11;;;;;;;;;9.33;7.00;;;;;14.63;32.87;100455.63;5007805;28;45475;-70
2022/04/21 02:30:36;;;;;;;;;7.67;6.00;;;;;14.58;32.31;100443.59;4992607;28;45430;-69
2022/04/21 02:33:02;;;;;;;;;10.33;8.33;;;;;14.54;32.19;100442.28;4997286;28;45725;-69
2022/04/21 02:35:27;;;;;;;;;7.67;7.67;;;;;14.55;32.86;100446.63;4997077;28;46469;-68
2022/04/21 02:37:53;;;;;;;;;8.67;7.67;;;;;14.37;32.20;100429.97;4996731;28;45504;-66
2022/04/21 02:40:18;;;;;;;;;9.00;9.00;;;;;14.31;31.94;100415.47;4997040;28;45344;-68
2022/04/21 02:42:44;;;;;;;;;6.67;6.67;;;;;14.40;32.45;100443.00;4997454;28;45462;-69
2022/04/21 02:45:11;;;;;;;;;9.00;8.00;;;;;14.40;32.34;100439.47;4999888;28;47704;-69
2022/04/21 02:47:38;;;;;;;;;8.33;8.33;;;;;13.67;32.35;100323.94;5008145;28;45514;-69
2022/04/21 02:50:05;;;;;;;;;9.67;8.33;;;;;14.36;32.69;100441.69;4996245;28;45591;-69
2022/04/21 02:52:33;;;;;;;;;9.33;8.33;;;;;14.38;32.50;100433.47;5000778;28;45587;-69
2022/04/21 02:57:43;;;;;;;;;9.00;9.00;;;;;14.12;32.65;100389.19;5012934;28;45667;-69
2022/04/21 03:00:09;;;;;;;;;8.67;8.67;;;;;14.39;33.08;100437.81;4995432;28;45411;-68
2022/04/21 03:02:34;;;;;;;;;9.67;8.00;;;;;14.40;32.88;100436.81;4994533;28;45737;-69
2022/04/21 03:05:00;;;;;;;;;9.00;8.33;;;;;14.32;32.70;100430.50;5000732;28;45509;-68
2022/04/21 03:07:25;;;;;;;;;7.67;7.67;;;;;14.14;32.99;100413.06;5000082;28;45286;-69
2022/04/21 03:09:53;;;;;;;;;7.00;7.00;;;;;14.15;32.93;100418.22;5001090;28;45802;-70
2022/04/21 03:12:21;;;;;;;;;9.00;9.00;;;;;14.28;32.60;100434.56;5005886;28;45382;-69
2022/04/21 03:14:47;;;;;;;;;9.67;9.67;;;;;14.32;32.80;100425.16;5001816;28;46391;-68
2022/04/21 03:17:13;;;;;;;;;7.67;7.67;;;;;14.17;33.00;100381.47;5015069;28;45324;-68
2022/04/21 03:19:39;;;;;;;;;12.67;11.33;;;;;14.45;32.93;100426.47;4982179;28;45311;-69
2022/04/21 03:24:49;;;;;;;;;9.00;8.33;;;;;14.25;33.26;100412.69;5017665;28;45783;-69
2022/04/21 03:27:15;;;;;;;;;9.00;9.00;;;;;14.18;33.21;100404.50;5009126;28;45269;-69
2022/04/21 03:29:40;;;;;;;;;10.67;9.67;;;;;14.10;33.74;100411.75;5010006;28;45306;-68
2022/04/21 03:32:11;;;;;;;;;9.00;8.33;;;;;14.03;33.63;100411.63;5019615;28;45487;-69
2022/04/21 03:34:40;;;;;;;;;9.33;8.33;;;;;13.99;33.50;100399.59;5019211;28;46540;-67
2022/04/21 03:37:06;;;;;;;;;11.67;11.67;;;;;14.06;33.45;100405.09;5014528;28;45550;-70
2022/04/21 03:39:32;;;;;;;;;9.00;9.00;;;;;14.03;33.40;100411.63;5000717;28;45466;-67
2022/04/21 03:41:57;;;;;;;;;16.33;11.00;;;;;14.00;33.58;100406.59;4999675;28;45207;-69
2022/04/21 03:44:22;;;;;;;;;9.33;9.33;;;;;13.94;33.28;100401.97;4999192;28;45914;-68
2022/04/21 03:46:49;;;;;;;;;12.33;9.00;;;;;13.89;33.70;100410.50;5005296;28;45539;-69
2022/04/21 03:49:14;;;;;;;;;13.00;12.00;;;;;13.72;33.52;100392.88;4999449;28;45322;-69
2022/04/21 03:51:40;;;;;;;;;13.33;13.33;;;;;13.89;33.87;100407.00;4999420;28;45452;-67
2022/04/21 03:54:05;;;;;;;;;10.33;9.33;;;;;13.77;33.65;100400.38;5003054;28;45972;-68
2022/04/21 03:56:32;;;;;;;;;7.67;5.33;;;;;13.62;33.91;100377.06;5017849;28;45463;-67
2022/04/21 03:58:58;;;;;;;;;11.33;10.33;;;;;13.82;33.70;100414.06;5000052;28;45393;-68
2022/04/21 04:01:23;;;;;;;;;11.67;11.67;;;;;13.65;33.69;100390.06;5003273;28;45507;-68
2022/04/21 04:03:49;;;;;;;;;11.33;8.67;;;;;13.67;33.94;100400.59;4989609;28;46099;-70
2022/04/21 04:11:43;;;;;;;;;12.00;11.00;;;;;13.56;34.10;100407.13;4999674;28;45562;-70
2022/04/21 04:14:08;;;;;;;;;13.00;12.67;;;;;13.53;33.59;100394.09;5017362;28;45518;-69
2022/04/21 04:16:35;;;;;;;;;12.33;10.00;;;;;13.32;33.79;100364.47;5018753;28;45462;-68
2022/04/21 04:19:05;;;;;;;;;14.67;9.67;;;;;13.20;33.92;100349.78;4999454;28;45719;-70
2022/04/21 04:21:37;;;;;;;;;13.00;11.67;;;;;12.92;34.04;100314.63;5015912;28;45333;-69
2022/04/21 04:24:04;;;;;;;;;14.33;14.00;;;;;13.30;34.07;100377.16;4999463;28;45855;-67
2022/04/21 04:26:31;;;;;;;;;10.00;10.00;;;;;13.30;34.08;100387.84;5018330;28;45250;-69
2022/04/21 04:28:57;;;;;;;;;8.67;8.67;;;;;13.38;33.98;100396.63;5001075;28;45309;-67
2022/04/21 04:31:22;;;;;;;;;12.67;10.33;;;;;13.35;34.45;100382.81;5003097;28;45440;-67
2022/04/21 04:33:47;;;;;;;;;11.00;11.00;;;;;13.40;34.36;100404.47;5018469;28;45948;-67
2022/04/21 04:36:16;;;;;;;;;12.00;12.00;;;;;13.38;34.64;100417.16;5017203;28;45645;-69
2022/04/21 04:38:42;;;;;;;;;9.00;9.00;;;;;13.34;34.66;100424.69;4999438;28;45575;-69
2022/04/21 04:43:51;;;;;;;;;13.33;9.33;;;;;13.29;34.41;100412.88;5000344;28;45878;-67
2022/04/21 04:46:35;;;;;;;;;10.00;10.00;;;;;13.29;34.08;100413.69;4998050;28;45527;-68
2022/04/21 04:49:05;;;;;;;;;12.33;12.33;;;;;13.30;34.49;100417.19;5009982;28;46105;-69
2022/04/21 04:51:31;;;;;;;;;15.00;13.00;;;;;13.22;34.52;100409.22;4998102;28;45675;-67
2022/04/21 04:53:57;;;;;;;;;7.33;6.00;;;;;13.34;34.62;100434.53;5012092;28;46083;-69
2022/04/21 04:56:29;;;;;;;;;12.33;11.33;;;;;13.28;34.36;100424.53;5016410;28;45559;-70
2022/04/21 04:58:55;;;;;;;;;13.00;11.00;;;;;12.52;34.58;100299.50;4995487;28;45512;-70
2022/04/21 05:01:35;;;;;;;;;16.00;13.67;;;;;13.27;34.45;100429.06;4996090;28;45545;-68
2022/04/21 05:04:01;;;;;;;;;10.33;10.00;;;;;13.29;34.88;100419.03;5017320;28;46408;-70
2022/04/21 05:06:27;;;;;;;;;11.00;10.00;;;;;12.94;34.40;100355.31;4999633;28;45219;-68
2022/04/21 05:08:52;;;;;;;;;10.00;9.00;;;;;13.39;35.01;100434.84;5016060;28;45495;-69
2022/04/21 05:11:17;;;;;;;;;13.33;12.67;;;;;13.37;34.66;100427.00;5001484;28;45239;-70
2022/04/21 05:13:44;;;;;;;;;14.33;13.33;;;;;13.47;34.71;100442.88;4997776;28;45701;-69
2022/04/21 05:16:09;;;;;;;;;12.33;10.33;;;;;13.30;34.67;100417.19;5015629;28;45523;-68
2022/04/21 05:18:35;;;;;;;;;13.00;11.67;;;;;13.47;34.55;100436.69;4999432;28;45361;-70
2022/04/21 05:21:00;;;;;;;;;13.67;12.33;;;;;13.44;34.63;100437.88;4999319;28;45681;-70
2022/04/21 05:23:32;;;;;;;;;13.67;13.33;;;;;13.47;34.69;100442.88;5009546;28;46466;-70
2022/04/21 05:25:57;;;;;;;;;14.33;12.00;;;;;13.49;34.57;100445.38;5012280;28;45530;-70
2022/04/21 05:28:24;;;;;;;;;15.00;13.33;;;;;13.47;34.47;100442.03;5023000;28;45264;-69
2022/04/21 05:30:55;;;;;;;;;13.33;12.33;;;;;13.33;34.84;100424.88;5012383;28;45457;-68
2022/04/21 05:33:28;;;;;;;;;12.50;12.50;;;;;12.86;35.63;100361.50;5005707;28;45761;-69
2022/04/21 05:35:55;;;;;;;;;16.67;13.33;;;;;13.20;35.37;100409.34;5016581;28;45362;-69
2022/04/21 05:38:21;;;;;;;;;15.00;14.00;;;;;13.23;35.60;100405.53;5007431;28;45668;-70
2022/04/21 05:40:47;;;;;;;;;12.67;11.67;;;;;13.48;34.91;100439.19;5007250;28;46303;-73
2022/04/21 05:43:17;;;;;;;;;14.67;13.00;;;;;13.40;35.78;100442.69;4997150;28;45496;-70
2022/04/21 05:45:43;;;;;;;;;9.33;9.33;;;;;13.28;35.56;100411.19;5012108;28;45460;-71
2022/04/21 05:48:08;;;;;;;;;13.67;12.67;;;;;13.32;35.95;100417.84;5008033;28;45517;-69
2022/04/21 05:50:34;;;;;;;;;14.00;11.33;;;;;13.34;35.96;100416.69;4998852;28;45630;-70
2022/04/21 05:53:03;;;;;;;;;16.00;12.33;;;;;13.20;35.75;100404.00;4986955;28;47542;-68
2022/04/21 05:55:29;;;;;;;;;10.67;9.67;;;;;13.27;35.97;100420.22;4999424;28;45296;-71
2022/04/21 05:57:55;;;;;;;;;16.33;14.33;;;;;12.88;36.48;100356.84;5004024;28;45489;-72
2022/04/21 06:00:20;;;;;;;;;11.33;11.33;;;;;13.30;36.31;100414.53;5016848;28;45245;-71
2022/04/21 06:02:46;;;;;;;;;15.00;12.33;;;;;11.34;36.26;100092.97;5016163;28;45290;-70
2022/04/21 06:05:12;;;;;;;;;13.33;13.33;;;;;12.38;36.12;100261.84;4998649;28;45323;-70
2022/04/21 06:07:39;;;;;;;;;16.33;15.33;;;;;13.42;36.12;100415.84;5012809;28;45503;-69
2022/04/21 06:10:04;;;;;;;;;12.00;12.00;;;;;13.37;36.02;100399.47;4998762;28;45372;-71
2022/04/21 06:12:30;;;;;;;;;16.00;14.33;;;;;13.53;35.91;100417.31;4979590;28;47128;-69
2022/04/21 06:14:55;;;;;;;;;12.00;12.00;;;;;13.57;35.99;100422.13;4983795;28;45548;-71
2022/04/21 06:17:21;;;;;;;;;14.00;11.00;;;;;13.60;35.71;100416.44;5020652;28;45462;-67
2022/04/21 06:19:47;;;;;;;;;16.00;12.67;;;;;13.44;35.89;100392.47;5004795;28;46088;-75
2022/04/21 06:22:13;;;;;;;;;13.67;13.67;;;;;13.26;35.95;100374.00;4979438;28;48354;-72
2022/04/21 06:24:38;;;;;;;;;14.67;13.67;;;;;13.54;36.03;100410.97;4998434;28;45248;-71
2022/04/21 06:27:04;;;;;;;;;13.67;12.00;;;;;13.73;35.86;100431.94;4978666;28;45407;-70
2022/04/21 06:29:30;;;;;;;;;12.33;11.67;;;;;12.86;35.50;100277.97;4996723;28;45466;-70
2022/04/21 06:31:55;;;;;;;;;15.00;13.00;;;;;13.89;36.05;100413.19;4997373;28;46192;-71
2022/04/21 06:34:22;;;;;;;;;16.67;14.33;;;;;14.56;35.07;100423.38;5009907;28;46234;-69
2022/04/21 06:36:48;;;;;;;;;13.67;13.67;;;;;15.04;33.98;100403.44;4997859;28;45484;-70
2022/04/21 06:39:14;;;;;;;;;14.00;12.67;;;;;15.69;32.74;100391.25;5013752;28;45389;-69
2022/04/21 06:41:39;;;;;;;;;9.67;9.67;;;;;16.22;31.70;100418.69;4987918;28;47848;-70
2022/04/21 06:49:33;;;;;;;;;14.67;13.67;;;;;17.37;29.93;100389.00;5005233;28;45511;-70
2022/04/21 06:51:58;;;;;;;;;17.33;15.00;;;;;17.57;29.61;100409.63;5014969;28;45472;-71
2022/04/21 06:54:23;;;;;;;;;11.33;11.33;;;;;17.64;29.34;100396.22;5015394;28;45414;-70
2022/04/21 06:56:49;;;;;;;;;13.33;12.33;;;;;17.98;29.28;100411.50;5015684;28;45326;-71
2022/04/21 06:59:15;;;;;;;;;12.00;12.00;;;;;18.17;28.92;100393.78;5011115;28;45373;-70
2022/04/21 07:01:41;;;;;;;;;13.33;13.33;;;;;18.51;28.35;100404.44;5026827;28;48100;-71
2022/04/21 07:04:07;;;;;;;;;13.67;11.00;;;;;18.50;28.16;100405.47;5013409;28;45459;-71
2022/04/21 07:06:33;;;;;;;;;9.67;8.67;;;;;18.81;28.45;100401.41;5016219;28;45415;-70
2022/04/21 07:08:58;;;;;;;;;14.33;14.33;;;;;18.96;27.69;100398.53;5015835;28;45234;-71
2022/04/21 07:11:24;;;;;;;;;14.67;10.33;;;;;19.22;27.67;100403.06;5005949;28;48252;-69
2022/04/21 07:13:49;;;;;;;;;17.00;15.33;;;;;19.24;27.24;100379.44;5015601;28;45434;-72
2022/04/21 07:16:15;;;;;;;;;12.00;10.33;;;;;19.40;26.75;100381.69;5016074;28;45203;-68
2022/04/21 07:18:40;;;;;;;;;12.33;12.33;;;;;19.56;26.75;100370.47;5015908;28;45482;-73
2022/04/21 07:21:09;;;;;;;;;11.33;11.33;;;;;19.95;26.87;100388.41;5014154;28;46952;-71
2022/04/21 07:23:35;;;;;;;;;17.33;12.67;;;;;20.28;25.93;100396.34;5016115;28;45522;-70
2022/04/21 07:26:00;;;;;;;;;12.67;12.67;;;;;20.27;25.77;100378.50;5014538;28;45364;-70
2022/04/21 07:28:26;;;;;;;;;15.67;15.67;;;;;19.98;25.79;100368.25;5016003;28;45477;-70
2022/04/21 07:30:51;;;;;;;;;15.00;15.00;;;;;19.94;26.60;100357.06;5009559;28;46553;-70
2022/04/21 07:33:17;;;;;;;;;11.67;11.00;;;;;20.22;26.09;100390.97;4997647;28;45455;-70
2022/04/21 07:35:43;;;;;;;;;10.00;10.00;;;;;20.42;25.59;100369.28;5018485;28;45357;-71
2022/04/21 07:38:09;;;;;;;;;13.67;13.67;;;;;18.92;25.67;100123.34;5015826;28;45361;-70
2022/04/21 07:40:36;;;;;;;;;13.33;11.67;;;;;20.42;25.79;100366.59;5017288;28;46199;-74
2022/04/21 07:43:10;;;;;;;;;14.33;12.00;;;;;20.78;25.64;100380.25;5014311;28;45471;-72
2022/04/21 07:45:41;;;;;;;;;13.00;13.00;;;;;20.94;25.44;100347.28;5018734;28;45279;-70
2022/04/21 07:48:16;;;;;;;;;14.33;11.00;;;;;21.00;24.82;100328.53;5003933;28;45920;-71
2022/04/21 07:50:41;;;;;;;;;15.33;12.67;;;;;20.68;25.01;100336.72;4998536;28;46154;-69
2022/04/21 07:53:13;;;;;;;;;10.33;10.33;;;;;20.96;25.01;100379.50;5006464;28;45292;-70
2022/04/21 07:55:39;;;;;;;;;16.67;15.67;;;;;21.14;24.78;100374.16;5018659;28;45452;-71
2022/04/21 07:58:08;;;;;;;;;13.33;13.33;;;;;21.28;24.55;100384.88;5000618;28;45548;-70
2022/04/21 08:00:38;;;;;;;;;11.33;11.33;;;;;21.39;24.72;100357.91;5018568;28;45257;-70
2022/04/21 08:03:04;;;;;;;;;16.00;13.33;;;;;21.17;24.92;100391.78;5016920;28;45546;-70
2022/04/21 08:05:31;;;;;;;;;11.33;11.33;;;;;20.60;25.03;100323.47;5016915;28;45491;-69
2022/04/21 08:07:58;;;;;;;;;14.00;12.00;;;;;21.09;25.34;100392.09;5000547;28;45412;-69
2022/04/21 08:10:27;;;;;;;;;11.00;11.00;;;;;20.88;25.09;100359.00;5000160;28;48546;-69
2022/04/21 08:12:54;;;;;;;;;17.67;13.33;;;;;20.89;24.66;100305.78;5000300;28;45539;-70
2022/04/21 08:15:27;;;;;;;;;15.33;12.00;;;;;21.18;24.71;100304.22;5000284;28;45771;-71
2022/04/21 08:17:54;;;;;;;;;14.00;12.33;;;;;;;;5004922;28;45422;-71
2022/04/21 08:20:20;;;;;;;;;11.00;11.00;;;;;22.53;23.83;100366.28;4995680;28;47205;-72
2022/04/21 08:22:45;;;;;;;;;16.33;13.00;;;;;22.73;23.54;100383.88;5005608;28;45618;-71
2022/04/21 08:33:23;;;;;;;;;11.33;11.33;;;;;23.81;22.02;100351.94;5013766;28;45445;-72
2022/04/21 08:35:57;;;;;;;;;13.33;13.33;;;;;23.59;22.11;100317.31;5017949;28;45424;-71
2022/04/21 08:38:27;;;;;;;;;15.00;12.67;;;;;24.48;21.74;100379.38;5011275;28;45554;-70
2022/04/21 08:40:57;;;;;;;;;12.33;12.33;;;;;24.77;21.37;100352.94;4999954;28;46280;-70
2022/04/21 08:43:24;;;;;;;;;14.00;14.00;;;;;25.05;21.15;100344.75;5005587;28;45338;-70
2022/04/21 08:45:51;;;;;;;;;11.67;8.67;;;;;25.60;20.93;100368.34;4999258;28;45583;-70
2022/04/21 08:48:19;;;;;;;;;17.00;14.00;;;;;25.47;20.73;100355.13;4980805;28;45583;-69
2022/04/21 08:50:45;;;;;;;;;18.00;16.00;;;;;25.74;20.42;100369.66;4996074;28;48879;-70
2022/04/21 08:53:16;;;;;;;;;14.00;11.67;;;;;25.41;20.64;100339.78;4996416;28;45657;-71
2022/04/21 08:55:42;;;;;;;;;13.00;13.00;;;;;25.49;20.20;100363.88;4998271;28;45363;-70
2022/04/21 08:58:07;;;;;;;;;12.33;12.33;;;;;25.56;20.50;100369.94;4980073;28;45281;-70
2022/04/21 09:00:33;;;;;;;;;13.00;11.67;;;;;25.26;20.15;100293.34;4997602;28;45759;-70
2022/04/21 09:03:04;;;;;;;;;10.33;10.33;;;;;25.73;20.58;100370.75;4998029;28;45257;-70
2022/04/21 09:05:30;;;;;;;;;13.33;12.33;;;;;25.94;20.20;100360.09;4997965;28;45305;-71
2022/04/21 09:07:58;;;;;;;;;10.33;10.33;;;;;26.50;19.67;100369.72;4983455;28;45425;-72
2022/04/21 09:10:32;;;;;;;;;12.33;11.00;;;;;27.48;18.96;100374.88;5008829;28;45688;-71
2022/04/21 09:13:00;;;;;;;;;13.33;13.33;;;;;28.15;17.91;100342.09;5013750;28;45487;-73
2022/04/21 09:15:28;;;;;;;;;15.33;14.33;;;;;28.43;17.32;100356.38;5015066;28;45231;-70
2022/04/21 09:17:58;;;;;;;;;11.33;11.33;;;;;28.38;17.31;100349.00;5009133;28;45401;-71
2022/04/21 09:20:27;;;;;;;;;16.67;15.67;;;;;28.62;16.62;100349.28;5004660;28;45991;-70
2022/04/21 09:22:57;;;;;;;;;13.67;11.67;;;;;29.07;16.09;100273.78;5006184;28;45590;-70
2022/04/21 09:25:28;;;;;;;;;16.00;13.00;;;;;30.30;15.97;100365.34;4988025;28;45505;-68
2022/04/21 09:27:55;;;;;;;;;15.00;12.67;;;;;31.06;15.05;100366.69;5016762;28;45433;-70
2022/04/21 09:30:22;;;;;;;;;13.00;13.00;;;;;31.94;14.38;100343.47;5009722;28;45849;-69
2022/04/21 09:32:58;;;;;;;;;13.67;13.67;;;;;32.73;13.50;100354.69;4996758;28;45342;-71
2022/04/21 09:35:28;;;;;;;;;10.00;10.00;;;;;33.71;12.77;100330.59;4997351;28;45541;-72
2022/04/21 09:37:58;;;;;;;;;15.67;14.33;;;;;34.09;12.17;100343.00;4997354;28;45355;-71
2022/04/21 09:40:26;;;;;;;;;10.00;10.00;;;;;34.16;11.94;100270.84;4996725;28;45614;-70
2022/04/21 09:42:53;;;;;;;;;14.00;14.00;;;;;35.35;11.27;100352.06;4979611;28;45320;-70
2022/04/21 09:48:30;;;;;;;;;13.00;12.00;;;;;34.47;12.08;100262.66;5001184;28;45195;-70
2022/04/21 09:51:11;;;;;;;;;10.67;9.00;;;;;35.39;11.76;100326.53;4998477;28;47817;-71
2022/04/21 09:53:58;;;;;;;;;12.00;11.00;;;;;35.35;11.61;100294.00;4984236;28;45445;-72
2022/04/21 09:56:31;;;;;;;;;15.33;12.33;;;;;35.62;11.67;100328.06;4994716;28;45494;-71
2022/04/21 09:59:01;;;;;;;;;13.33;11.67;;;;;34.91;11.76;100327.28;4997413;28;45525;-70
2022/04/21 10:01:28;;;;;;;;;16.00;13.67;;;;;34.22;11.89;100321.19;4996305;28;46760;-71
2022/04/21 10:03:54;;;;;;;;;13.67;12.00;;;;;32.84;12.41;100312.13;4997098;28;45571;-69
2022/04/21 10:06:20;;;;;;;;;16.67;15.33;;;;;31.11;13.59;100314.47;4996863;28;45509;-69
2022/04/21 10:08:50;;;;;;;;;17.67;14.00;;;;;30.73;13.92;100322.53;4997326;28;45427;-70
2022/04/21 10:11:27;;;;;;;;;12.67;11.33;;;;;30.03;14.62;100293.63;4996718;28;45702;-71
2022/04/21 10:13:55;;;;;;;;;14.00;12.00;;;;;30.10;14.88;100318.88;4996831;28;45389;-69
2022/04/21 10:16:28;;;;;;;;;11.00;9.00;;;;;28.52;15.65;100307.47;4996762;28;45469;-70
2022/04/21 10:18:57;;;;;;;;;10.33;9.33;;;;;27.78;16.02;100286.81;4995588;28;45607;-71
2022/04/21 10:21:51;;;;;;;;;15.67;13.67;;;;;26.59;17.31;100312.81;4978469;28;47091;-71
2022/04/21 10:24:25;;;;;;;;;14.67;13.67;;;;;25.70;18.37;100314.06;4996536;28;45527;-70
2022/04/21 10:26:51;;;;;;;;;15.67;13.00;;;;;24.95;19.01;100268.38;5003631;28;45458;-72
2022/04/21 10:29:27;;;;;;;;;15.00;15.00;;;;;24.14;19.53;100292.31;5011671;28;45475;-73
2022/04/21 10:32:05;;;;;;;;;11.67;11.67;;;;;24.07;20.02;100301.69;5015921;28;45620;-71
2022/04/21 10:34:37;;;;;;;;;15.00;13.33;;;;;23.80;20.23;100291.41;5014067;28;45335;-72
2022/04/21 10:37:11;;;;;;;;;18.00;14.67;;;;;23.26;21.11;100296.25;5013848;28;45530;-70
2022/04/21 10:39:38;;;;;;;;;14.00;13.33;;;;;20.94;22.07;100043.81;5027395;28;45497;-71
2022/04/21 10:42:18;;;;;;;;;14.67;12.67;;;;;22.13;21.97;100270.19;4999177;28;46202;-72
2022/04/21 10:44:49;;;;;;;;;16.00;16.00;;;;;21.84;22.56;100288.09;4990705;28;45547;-70
2022/04/21 10:47:26;;;;;;;;;11.67;11.67;;;;;21.36;23.20;100301.56;5016074;28;45211;-70
2022/04/21 10:49:59;;;;;;;;;15.00;15.00;;;;;20.18;23.50;100128.75;5014882;28;45515;-70
2022/04/21 10:57:50;;;;;;;;;9.67;9.67;;;;;20.61;23.76;100281.91;5009874;28;45542;-71
2022/04/21 11:00:29;;;;;;;;;15.67;12.67;;;;;20.60;24.23;100291.06;4994412;28;45365;-71
2022/04/21 11:03:08;;;;;;;;;16.67;14.67;;;;;20.43;24.31;100280.00;5011226;28;47083;-71
2022/04/21 11:05:36;;;;;;;;;17.67;16.33;;;;;20.41;24.03;100289.34;5003625;28;45563;-72
2022/04/21 11:08:11;;;;;;;;;13.67;11.67;;;;;19.97;24.55;100237.91;5015292;28;45567;-72
2022/04/21 11:10:36;;;;;;;;;15.00;15.00;;;;;18.78;24.66;100066.00;4980854;28;45618;-72
2022/04/21 11:13:03;;;;;;;;;12.00;12.00;;;;;20.05;24.60;100271.91;5011148;28;46096;-71
2022/04/21 11:15:44;;;;;;;;;16.00;12.00;;;;;19.99;24.69;100278.16;4981778;28;45686;-71
2022/04/21 11:18:28;;;;;;;;;15.33;12.33;;;;;19.91;24.40;100248.75;5002463;28;45562;-70
2022/04/21 11:21:26;;;;;;;;;16.67;12.00;;;;;20.15;24.44;100261.47;5017005;28;45425;-71
2022/04/21 11:23:52;;;;;;;;;14.33;14.33;;;;;19.59;24.63;100181.28;4986125;28;47151;-71
2022/04/21 11:26:24;;;;;;;;;14.67;13.33;;;;;19.88;24.24;100197.94;5006011;28;45334;-72
2022/04/21 11:28:49;;;;;;;;;14.00;14.00;;;;;20.05;24.21;100228.75;4999387;28;45377;-72
2022/04/21 11:31:19;;;;;;;;;17.67;14.33;;;;;20.12;23.76;100244.88;4999439;28;45484;-71
2022/04/21 11:33:45;;;;;;;;;14.00;14.00;;;;;20.20;23.77;100253.53;4999022;28;45791;-71
2022/04/21 11:36:15;;;;;;;;;13.67;11.67;;;;;20.01;24.21;100249.09;5010449;28;45373;-71
2022/04/21 11:38:41;;;;;;;;;14.67;13.33;;;;;20.07;24.27;100250.13;5016438;28;45487;-71
2022/04/21 11:41:09;;;;;;;;;12.33;12.33;;;;;19.78;23.94;100194.88;5018926;28;45585;-71
2022/04/21 11:43:35;;;;;;;;;14.33;14.33;;;;;19.95;23.77;100218.41;5014903;28;45849;-71
2022/04/21 11:46:04;;;;;;;;;12.67;12.67;;;;;20.03;23.44;100230.84;5018240;28;45470;-70
2022/04/21 11:48:31;;;;;;;;;10.00;9.67;;;;;19.93;23.20;100239.41;5014314;28;45522;-71
2022/04/21 11:50:57;;;;;;;;;13.33;11.67;;;;;19.62;23.40;100226.72;5017202;28;45472;-69
2022/04/21 11:53:22;;;;;;;;;13.00;13.00;;;;;19.58;23.45;100211.16;5017851;28;46388;-72
2022/04/21 11:55:50;;;;;;;;;11.67;10.67;;;;;19.90;23.10;100226.34;5016530;28;45587;-71
2022/04/21 11:58:32;;;;;;;;;12.00;10.67;;;;;19.93;23.45;100236.69;5018398;28;45335;-71
2022/04/21 12:06:38;;;;;;;;;12.33;10.67;;;;;20.23;23.59;100223.44;5007421;28;45476;-70